Time;durP1;ratioP1;P1;durP2;ratioP2;P2;SDS_P1;SDS_P2;PMS_P1;PMS_P2;Temp;Humidity;BMP_temperature;BMP_pressure;BME280_temperature;BME280_humidity;BME280_pressure;Samples;Min_cycle;Max_cycle;Signal;HPM_P1;HPM_P2
2022/08/19 00:00:38;;;;;;;28.75;25.70;;;20.50;49.40;;;;;;5093797;28;20176;-71
2022/08/19 00:03:05;;;;;;;27.38;24.77;;;20.40;54.40;;;;;;5093605;28;20245;-71
2022/08/19 00:05:31;;;;;;;27.35;24.35;;;20.30;61.50;;;;;;5093954;28;20168;-71
2022/08/19 00:07:56;;;;;;;27.65;24.83;;;20.30;65.80;;;;;;5093397;28;20207;-70
2022/08/19 00:10:24;;;;;;;27.45;24.42;;;20.20;69.20;;;;;;5093083;28;20247;-71
2022/08/19 00:12:50;;;;;;;27.75;24.75;;;20.30;70.30;;;;;;5093563;28;20194;-70
2022/08/19 00:15:19;;;;;;;28.58;24.17;;;20.30;69.80;;;;;;5093538;28;20251;-71
2022/08/19 00:17:45;;;;;;;31.60;27.50;;;20.30;74.60;;;;;;5093448;28;20217;-70
2022/08/19 00:20:16;;;;;;;34.28;28.33;;;20.30;82.50;;;;;;5093537;28;20172;-71
2022/08/19 00:22:42;;;;;;;36.30;29.45;;;20.30;85.50;;;;;;5093520;28;20164;-71
2022/08/19 00:25:08;;;;;;;37.05;29.80;;;20.30;90.90;;;;;;5093068;28;20168;-71
2022/08/19 00:27:34;;;;;;;42.42;33.97;;;20.40;90.60;;;;;;5093265;28;20214;-70
2022/08/19 00:30:02;;;;;;;43.10;34.88;;;20.40;90.10;;;;;;5092048;28;20261;-71
2022/08/19 00:32:28;;;;;;;47.40;37.35;;;20.50;93.20;;;;;;5093144;28;20160;-71
2022/08/19 00:34:53;;;;;;;43.80;35.58;;;20.60;92.30;;;;;;5093222;28;20650;-70
2022/08/19 00:37:22;;;;;;;49.80;37.90;;;20.60;91.60;;;;;;5093251;28;20168;-71
2022/08/19 00:39:50;;;;;;;45.72;37.10;;;20.50;92.70;;;;;;5092827;28;20172;-70
2022/08/19 00:42:17;;;;;;;48.97;37.83;;;20.50;94.70;;;;;;5093332;28;20164;-70
2022/08/19 00:44:42;;;;;;;52.53;39.13;;;20.60;95.50;;;;;;5093224;28;20171;-71
2022/08/19 00:47:09;;;;;;;52.33;40.80;;;20.60;93.90;;;;;;5093039;28;20218;-71
2022/08/19 00:49:43;;;;;;;54.33;41.15;;;20.50;96.00;;;;;;5092991;28;20235;-71
2022/08/19 00:52:14;;;;;;;54.53;41.95;;;20.50;97.80;;;;;;5093238;28;20163;-70
2022/08/19 00:54:41;;;;;;;53.08;40.63;;;20.50;98.90;;;;;;5092761;28;20195;-71
2022/08/19 00:57:12;;;;;;;56.15;41.88;;;20.70;96.80;;;;;;5093192;28;20241;-71
2022/08/19 00:59:40;;;;;;;60.55;43.38;;;20.70;93.80;;;;;;5093054;28;20171;-70
2022/08/19 01:02:07;;;;;;;54.55;40.83;;;20.80;95.30;;;;;;5094648;28;20250;-71
2022/08/19 01:04:32;;;;;;;58.92;42.50;;;20.80;90.60;;;;;;5097099;28;20164;-71
2022/08/19 01:06:59;;;;;;;57.85;41.42;;;20.80;90.50;;;;;;5096449;28;20569;-71
2022/08/19 01:09:25;;;;;;;56.17;42.60;;;20.80;88.40;;;;;;5096566;28;20223;-71
2022/08/19 01:11:51;;;;;;;55.88;42.33;;;20.70;92.20;;;;;;5096911;28;20563;-70
2022/08/19 01:14:18;;;;;;;54.20;40.20;;;20.60;93.60;;;;;;5096727;28;20211;-70
2022/08/19 01:16:46;;;;;;;55.33;41.10;;;20.50;93.00;;;;;;5096672;28;20211;-70
2022/08/19 01:19:32;;;;;;;51.53;39.70;;;20.50;96.00;;;;;;5096759;28;20282;-70
2022/08/19 01:22:20;;;;;;;54.03;41.67;;;20.40;95.20;;;;;;5096517;28;20187;-71
2022/08/19 01:24:45;;;;;;;53.88;38.45;;;20.20;99.90;;;;;;5095436;28;20192;-71
2022/08/19 01:27:11;;;;;;;50.40;36.33;;;20.10;99.70;;;;;;5096406;28;20655;-70
2022/08/19 01:29:40;;;;;;;50.67;36.42;;;20.00;99.90;;;;;;5096521;28;20563;-69
2022/08/19 01:32:08;;;;;;;46.42;35.65;;;19.90;99.90;;;;;;5096326;28;20229;-70
2022/08/19 01:34:34;;;;;;;47.65;36.05;;;19.90;99.90;;;;;;5095329;28;20695;-70
2022/08/19 01:37:05;;;;;;;46.50;35.90;;;19.80;99.70;;;;;;5095962;28;20164;-69
2022/08/19 01:39:30;;;;;;;44.40;36.10;;;19.60;99.90;;;;;;5096234;28;20178;-70
2022/08/19 01:41:56;;;;;;;43.65;34.92;;;19.60;99.90;;;;;;5096249;28;20160;-70
2022/08/19 01:44:23;;;;;;;45.00;34.25;;;19.60;99.90;;;;;;5094857;28;20522;-70
2022/08/19 01:46:50;;;;;;;44.53;35.25;;;19.60;99.90;;;;;;5096162;28;20163;-70
2022/08/19 01:49:19;;;;;;;39.90;32.22;;;19.60;99.90;;;;;;5096144;28;20204;-70
2022/08/19 01:51:45;;;;;;;38.70;31.75;;;19.60;99.90;;;;;;5095783;28;20176;-70
2022/08/19 01:54:13;;;;;;;41.15;31.95;;;19.50;99.20;;;;;;5096246;28;20171;-70
2022/08/19 01:56:39;;;;;;;38.25;30.80;;;19.60;96.20;;;;;;5095824;28;20168;-70
2022/08/19 01:59:14;;;;;;;38.05;30.85;;;19.50;95.70;;;;;;5095888;28;20675;-70
2022/08/19 02:01:40;;;;;;;39.58;31.60;;;19.50;97.30;;;;;;5096113;28;20167;-70
2022/08/19 02:04:06;;;;;;;38.95;30.25;;;19.50;96.70;;;;;;5094677;28;20175;-70
2022/08/19 02:06:32;;;;;;;37.92;31.23;;;19.50;98.60;;;;;;5095073;28;20530;-71
2022/08/19 02:08:59;;;;;;;37.65;29.73;;;19.50;99.30;;;;;;5095671;28;20572;-70
2022/08/19 02:11:31;;;;;;;32.45;26.15;;;19.40;97.40;;;;;;5095602;28;20692;-70
2022/08/19 02:13:57;;;;;;;31.42;25.33;;;19.30;95.80;;;;;;5094952;28;20163;-70
2022/08/19 02:16:23;;;;;;;30.25;25.52;;;19.20;93.60;;;;;;5095707;28;20168;-70
2022/08/19 02:18:49;;;;;;;30.45;24.33;;;19.20;95.10;;;;;;5095445;28;20538;-70
2022/08/19 02:21:16;;;;;;;28.50;24.92;;;19.20;94.40;;;;;;5093967;28;20213;-70
2022/08/19 02:23:42;;;;;;;29.55;24.48;;;19.10;94.60;;;;;;5095350;28;20274;-71
2022/08/19 02:26:08;;;;;;;29.73;24.52;;;19.10;94.60;;;;;;5095002;28;20296;-71
2022/08/19 02:28:34;;;;;;;29.90;24.15;;;19.10;93.80;;;;;;5095055;28;20233;-70
2022/08/19 02:31:00;;;;;;;29.02;24.35;;;19.00;94.90;;;;;;5095192;28;20168;-70
2022/08/19 02:33:26;;;;;;;29.98;24.23;;;18.80;99.50;;;;;;5095272;28;20209;-70
2022/08/19 02:35:52;;;;;;;30.88;25.45;;;18.80;99.90;;;;;;5094890;28;20171;-70
2022/08/19 02:38:26;;;;;;;31.10;26.37;;;18.80;99.90;;;;;;5095126;28;20260;-70
2022/08/19 02:41:04;;;;;;;35.22;27.85;;;18.80;99.90;;;;;;5093500;28;20265;-70
2022/08/19 02:43:35;;;;;;;33.63;27.40;;;18.80;99.90;;;;;;5095055;28;20187;-70
2022/08/19 02:46:10;;;;;;;33.75;27.13;;;18.80;99.90;;;;;;5093640;28;20175;-70
2022/08/19 02:48:36;;;;;;;32.22;25.48;;;18.80;99.90;;;;;;5094651;28;20607;-70
2022/08/19 02:51:01;;;;;;;33.28;26.15;;;18.80;99.90;;;;;;5094460;28;20172;-70
2022/08/19 02:53:27;;;;;;;30.55;24.77;;;18.80;99.90;;;;;;5094744;28;20171;-71
2022/08/19 02:55:53;;;;;;;33.10;26.60;;;18.80;99.90;;;;;;5094914;28;20549;-70
2022/08/19 02:58:21;;;;;;;33.30;25.53;;;18.70;99.90;;;;;;5094732;28;20171;-70
2022/08/19 03:00:52;;;;;;;34.58;26.23;;;18.60;99.90;;;;;;5094777;28;20193;-70
2022/08/19 03:03:18;;;;;;;34.80;27.33;;;18.60;99.90;;;;;;5094296;28;20176;-71
2022/08/19 03:05:45;;;;;;;34.55;26.50;;;18.60;99.90;;;;;;5094492;28;20171;-70
2022/08/19 03:08:12;;;;;;;33.63;27.07;;;18.60;99.90;;;;;;5094174;28;20216;-71
2022/08/19 03:10:43;;;;;;;34.87;27.00;;;18.60;99.90;;;;;;5094556;28;20166;-71
2022/08/19 03:13:11;;;;;;;30.43;23.20;;;18.60;99.90;;;;;;5094571;28;20304;-70
2022/08/19 03:15:40;;;;;;;31.07;24.03;;;18.50;99.90;;;;;;5094400;28;20595;-70
2022/08/19 03:18:06;;;;;;;32.37;24.97;;;18.40;99.90;;;;;;5093882;28;20168;-70
2022/08/19 03:20:32;;;;;;;34.10;24.83;;;18.30;99.90;;;;;;5093895;28;20168;-70
2022/08/19 03:22:58;;;;;;;33.70;26.30;;;18.30;99.90;;;;;;5092781;28;20274;-70
2022/08/19 03:25:24;;;;;;;33.27;25.57;;;18.30;99.90;;;;;;5093371;28;20275;-70
2022/08/19 03:27:49;;;;;;;30.37;24.17;;;18.20;99.90;;;;;;5094201;28;20214;-70
2022/08/19 03:30:15;;;;;;;35.57;26.20;;;18.20;99.90;;;;;;5093604;28;20239;-69
2022/08/19 03:32:41;;;;;;;33.00;24.47;;;18.30;99.90;;;;;;5093466;28;20259;-70
2022/08/19 03:35:06;;;;;;;35.63;25.70;;;18.20;99.90;;;;;;5093894;28;20172;-70
2022/08/19 03:37:32;;;;;;;31.53;24.10;;;18.20;99.90;;;;;;5092630;28;20254;-70
2022/08/19 03:39:58;;;;;;;31.20;25.07;;;18.20;99.90;;;;;;5093873;28;20163;-70
2022/08/19 03:42:26;;;;;;;32.63;24.77;;;18.20;99.90;;;;;;5092764;28;20514;-70
2022/08/19 03:44:52;;;;;;;32.03;24.60;;;18.10;99.90;;;;;;5093638;28;20229;-69
2022/08/19 03:47:18;;;;;;;33.33;24.93;;;18.20;99.90;;;;;;5092780;28;20183;-70
2022/08/19 03:49:44;;;;;;;36.07;25.60;;;18.20;99.90;;;;;;5093597;28;20239;-70
2022/08/19 03:52:10;;;;;;;31.27;23.87;;;18.20;99.90;;;;;;5093518;28;20179;-70
2022/08/19 03:54:37;;;;;;;33.80;26.13;;;18.20;99.90;;;;;;5093322;28;20182;-70
2022/08/19 03:57:03;;;;;;;31.77;25.07;;;18.10;99.90;;;;;;5093395;28;20179;-70
2022/08/19 03:59:32;;;;;;;31.40;25.43;;;18.00;99.90;;;;;;5093425;28;20684;-70
2022/08/19 04:01:59;;;;;;;34.33;24.03;;;18.00;99.90;;;;;;5091872;28;20318;-70
2022/08/19 04:04:25;;;;;;;31.23;24.67;;;18.00;99.90;;;;;;5091832;28;20172;-70
2022/08/19 04:06:51;;;;;;;35.10;25.10;;;17.90;99.90;;;;;;5092377;28;20219;-70
2022/08/19 04:09:18;;;;;;;33.10;25.43;;;17.90;99.90;;;;;;5092294;28;20290;-69
2022/08/19 04:11:47;;;;;;;33.80;25.37;;;17.80;99.90;;;;;;5092475;28;20626;-70
2022/08/19 04:14:18;;;;;;;32.17;24.93;;;17.80;99.90;;;;;;5092029;28;20184;-70
2022/08/19 04:16:44;;;;;;;36.50;25.77;;;17.70;99.90;;;;;;5092880;28;20186;-70
2022/08/19 04:19:10;;;;;;;31.33;24.90;;;17.70;99.90;;;;;;5093008;28;20175;-70
2022/08/19 04:21:36;;;;;;;34.43;25.80;;;17.70;99.90;;;;;;5092699;28;20187;-70
2022/08/19 04:24:02;;;;;;;39.67;26.83;;;17.60;99.90;;;;;;5093027;28;20546;-70
2022/08/19 04:26:31;;;;;;;33.00;24.37;;;17.60;99.90;;;;;;5090941;28;20180;-70
2022/08/19 04:28:58;;;;;;;35.70;26.00;;;17.60;99.90;;;;;;5092854;28;20261;-69
2022/08/19 04:31:28;;;;;;;31.90;25.10;;;17.60;99.90;;;;;;5092065;28;20241;-69
2022/08/19 04:33:56;;;;;;;35.47;26.00;;;17.60;99.90;;;;;;5092690;28;20178;-71
2022/08/19 04:36:26;;;;;;;37.13;25.60;;;17.60;99.90;;;;;;5093420;28;20640;-69
2022/08/19 04:38:55;;;;;;;34.20;24.37;;;17.50;99.90;;;;;;5096889;28;20194;-70
2022/08/19 04:44:06;;;;;;;35.43;24.60;;;17.40;99.90;;;;;;5097292;28;20175;-70
2022/08/19 04:46:33;;;;;;;33.40;22.43;;;17.40;99.90;;;;;;5096544;28;20673;-70
2022/08/19 04:49:00;;;;;;;36.80;23.43;;;17.40;99.90;;;;;;5096720;28;20243;-70
2022/08/19 04:51:26;;;;;;;29.60;22.00;;;17.40;99.90;;;;;;5096636;28;20168;-70
2022/08/19 04:53:52;;;;;;;30.23;21.00;;;17.50;99.90;;;;;;5095846;28;20520;-70
2022/08/19 04:56:20;;;;;;;29.53;21.47;;;17.50;99.90;;;;;;5096687;28;20172;-70
2022/08/19 04:58:47;;;;;;;25.87;20.20;;;17.50;99.90;;;;;;5095634;28;20268;-70
2022/08/19 05:01:33;;;;;;;29.87;20.97;;;17.50;99.90;;;;;;5096344;28;20171;-70
2022/08/19 05:04:04;;;;;;;30.43;20.20;;;17.50;99.90;;;;;;5096328;28;20180;-70
2022/08/19 05:06:32;;;;;;;28.70;19.53;;;17.50;99.90;;;;;;5096071;28;20171;-70
2022/08/19 05:08:58;;;;;;;28.93;20.60;;;17.50;99.90;;;;;;5094930;28;20204;-70
2022/08/19 05:11:31;;;;;;;28.90;19.73;;;17.60;99.90;;;;;;5095928;28;20171;-69
2022/08/19 05:13:57;;;;;;;24.63;19.40;;;17.70;99.90;;;;;;5096079;28;20203;-70
2022/08/19 05:16:25;;;;;;;25.33;17.97;;;18.00;99.90;;;;;;5095957;28;20270;-70
2022/08/19 05:24:22;;;;;;;23.50;17.35;;;19.00;99.90;;;;;;5096284;28;20203;-70
2022/08/19 05:26:49;;;;;;;25.58;18.35;;;19.30;96.50;;;;;;5095599;28;20169;-70
2022/08/19 05:29:20;;;;;;;24.27;18.52;;;19.50;80.60;;;;;;5094473;28;20224;-70
2022/08/19 05:31:48;;;;;;;24.05;18.52;;;19.80;73.50;;;;;;5095497;28;20249;-69
2022/08/19 05:34:14;;;;;;;26.73;18.48;;;20.20;55.30;;;;;;5095792;28;20164;-70
2022/08/19 05:36:43;;;;;;;24.85;17.65;;;20.40;27.90;;;;;;5094767;28;20224;-70
2022/08/19 05:39:11;;;;;;;25.23;18.00;;;20.40;25.70;;;;;;5095618;28;20183;-70
2022/08/19 05:41:41;;;;;;;26.27;16.60;;;20.30;40.40;;;;;;5093837;28;20170;-70
2022/08/19 05:44:08;;;;;;;22.48;15.95;;;21.10;22.50;;;;;;5095367;28;20207;-70
2022/08/19 05:46:35;;;;;;;21.50;15.65;;;21.80;1.00;;;;;;5095286;28;20263;-70
2022/08/19 05:49:01;;;;;;;24.90;15.88;;;21.70;1.00;;;;;;5094030;28;20243;-69
2022/08/19 05:51:26;;;;;;;19.63;14.45;;;21.70;1.00;;;;;;5095822;28;20199;-70
2022/08/19 05:53:52;;;;;;;21.15;14.35;;;21.70;1.00;;;;;;5094454;28;20175;-70
2022/08/19 05:56:18;;;;;;;20.48;15.27;;;21.50;1.00;;;;;;5095014;28;20168;-70
2022/08/19 05:58:45;;;;;;;20.45;14.52;;;21.40;1.00;;;;;;5094800;28;20168;-70
2022/08/19 06:01:13;;;;;;;21.83;14.93;;;21.10;4.40;;;;;;5095424;28;20188;-70
2022/08/19 06:03:39;;;;;;;24.33;15.23;;;20.70;14.70;;;;;;5093915;28;20533;-70
2022/08/19 06:06:07;;;;;;;23.65;14.85;;;20.50;27.70;;;;;;5095127;28;20172;-71
2022/08/19 06:08:33;;;;;;;24.17;14.73;;;20.40;34.10;;;;;;5093886;28;20219;-70
2022/08/19 06:11:13;;;;;;;20.15;13.15;;;20.50;35.60;;;;;;5094679;28;20263;-69
2022/08/19 06:13:38;;;;;;;22.00;12.40;;;20.80;25.30;;;;;;5094602;28;20178;-70
2022/08/19 06:16:04;;;;;;;20.33;12.00;;;21.40;11.40;;;;;;5094899;28;20254;-70
2022/08/19 06:18:30;;;;;;;17.58;11.68;;;21.60;1.00;;;;;;5094781;28;20612;-70
2022/08/19 06:20:55;;;;;;;17.98;12.07;;;21.70;1.00;;;;;;5095319;28;20587;-70
2022/08/19 06:23:21;;;;;;;15.00;12.07;;;21.20;1.00;;;;;;5094690;28;20188;-69
2022/08/19 06:25:47;;;;;;;17.52;11.32;;;20.80;15.40;;;;;;5094688;28;20243;-69
2022/08/19 06:28:13;;;;;;;17.00;11.35;;;20.60;28.00;;;;;;5093703;28;20203;-70
2022/08/19 06:30:38;;;;;;;15.88;11.05;;;20.60;31.10;;;;;;5094705;28;20215;-71
2022/08/19 06:33:04;;;;;;;17.90;10.70;;;21.10;26.70;;;;;;5094766;28;20170;-71
2022/08/19 06:35:29;;;;;;;13.90;10.20;;;21.90;1.00;;;;;;5093423;28;20279;-71
2022/08/19 06:37:55;;;;;;;16.63;10.05;;;22.50;1.00;;;;;;5093326;28;20265;-70
2022/08/19 06:40:21;;;;;;;15.20;9.50;;;22.80;1.00;;;;;;5093991;28;20199;-70
2022/08/19 06:42:46;;;;;;;13.50;9.02;;;22.70;1.00;;;;;;5094200;28;20184;-71
2022/08/19 06:45:12;;;;;;;15.65;9.20;;;22.60;1.00;;;;;;5094078;28;20594;-70
2022/08/19 06:47:38;;;;;;;14.45;9.10;;;23.20;1.00;;;;;;5094062;28;20172;-70
2022/08/19 06:50:04;;;;;;;16.73;9.02;;;23.00;1.00;;;;;;5094360;28;20272;-70
2022/08/19 06:52:32;;;;;;;15.57;9.35;;;22.60;1.00;;;;;;5094046;28;20551;-69
2022/08/19 06:54:57;;;;;;;16.00;9.10;;;22.40;1.00;;;;;;5093929;28;20673;-70
2022/08/19 06:57:24;;;;;;;9.90;8.43;;;22.30;1.00;;;;;;5093696;28;20172;-72
2022/08/19 06:59:50;;;;;;;15.85;9.30;;;23.60;1.00;;;;;;5094156;28;20172;-71
2022/08/19 07:02:15;;;;;;;11.15;8.52;;;24.70;1.00;;;;;;5094225;28;20176;-71
2022/08/19 07:04:41;;;;;;;13.23;8.90;;;24.70;1.00;;;;;;5093818;28;20588;-71
2022/08/19 07:07:11;;;;;;;13.07;8.60;;;24.80;1.00;;;;;;5092081;28;20219;-72
2022/08/19 07:09:40;;;;;;;10.68;8.43;;;24.50;1.00;;;;;;5093679;28;20287;-71
2022/08/19 07:12:09;;;;;;;13.05;8.70;;;24.00;1.00;;;;;;5092957;28;20167;-70
2022/08/19 07:14:37;;;;;;;11.52;7.78;;;23.30;1.00;;;;;;5093565;28;20175;-71
2022/08/19 07:17:04;;;;;;;14.30;9.00;;;22.90;1.00;;;;;;5094024;28;20174;-70
2022/08/19 07:19:31;;;;;;;11.23;8.80;;;22.70;1.00;;;;;;5094177;28;20196;-71
2022/08/19 07:21:59;;;;;;;9.57;7.45;;;22.50;1.00;;;;;;5094218;28;20167;-71
2022/08/19 07:24:27;;;;;;;13.05;8.88;;;22.70;1.00;;;;;;5093372;28;20685;-71
2022/08/19 07:26:55;;;;;;;10.73;8.38;;;22.60;1.00;;;;;;5093868;28;20168;-71
2022/08/19 07:29:22;;;;;;;10.52;8.27;;;22.60;1.00;;;;;;5093826;28;20200;-71
2022/08/19 07:31:49;;;;;;;12.88;8.52;;;22.70;1.00;;;;;;5092059;28;20175;-71
2022/08/19 07:34:15;;;;;;;9.15;7.47;;;22.70;1.00;;;;;;5094005;28;20172;-71
2022/08/19 07:36:42;;;;;;;8.07;7.28;;;22.70;1.00;;;;;;5093332;28;20185;-71
2022/08/19 07:39:14;;;;;;;9.77;6.55;;;23.10;1.00;;;;;;5093367;28;20658;-71
2022/08/19 07:41:40;;;;;;;11.38;7.18;;;23.40;1.00;;;;;;5093396;28;20199;-71
2022/08/19 07:44:07;;;;;;;8.23;6.32;;;23.60;1.00;;;;;;5093204;28;20217;-71
2022/08/19 07:46:35;;;;;;;11.57;6.55;;;24.00;1.00;;;;;;5093358;28;20224;-71
2022/08/19 07:49:01;;;;;;;8.75;6.07;;;24.20;1.00;;;;;;5093176;28;20659;-72
2022/08/19 07:51:28;;;;;;;8.93;5.85;;;24.70;1.00;;;;;;5093097;28;20635;-72
2022/08/19 07:53:54;;;;;;;10.98;6.90;;;24.50;1.00;;;;;;5091446;28;20228;-72
2022/08/19 07:56:21;;;;;;;8.77;6.30;;;24.70;1.00;;;;;;5093294;28;20176;-72
2022/08/19 07:58:48;;;;;;;10.40;6.10;;;24.90;1.00;;;;;;5092407;28;20171;-72
2022/08/19 08:01:19;;;;;;;9.35;6.72;;;24.70;1.00;;;;;;5093318;28;20199;-72
2022/08/19 08:09:22;;;;;;;9.25;7.00;;;23.70;1.00;;;;;;5092835;28;20310;-71
2022/08/19 08:11:56;;;;;;;9.10;6.45;;;24.10;1.00;;;;;;5092011;28;20168;-71
2022/08/19 08:14:32;;;;;;;8.77;6.40;;;24.90;1.00;;;;;;5092683;28;20208;-72
2022/08/19 08:16:59;;;;;;;7.15;6.30;;;25.30;1.00;;;;;;5092461;28;20653;-72
2022/08/19 08:19:27;;;;;;;6.88;6.18;;;25.80;1.00;;;;;;5092998;28;20187;-73
2022/08/19 08:21:55;;;;;;;6.57;5.60;;;25.60;1.00;;;;;;5093015;28;20229;-73
2022/08/19 08:24:20;;;;;;;8.10;5.47;;;25.70;1.00;;;;;;5091939;28;20185;-72
2022/08/19 08:26:46;;;;;;;8.48;6.03;;;25.10;1.00;;;;;;5092967;28;20241;-72
2022/08/19 08:29:13;;;;;;;6.13;5.53;;;24.80;1.00;;;;;;5092904;28;20199;-73
2022/08/19 08:31:44;;;;;;;7.03;6.32;;;24.70;1.00;;;;;;5092591;28;20698;-72
2022/08/19 08:34:11;;;;;;;7.75;5.60;;;24.60;1.00;;;;;;5092724;28;20168;-71
2022/08/19 08:36:44;;;;;;;6.70;6.03;;;24.30;1.00;;;;;;5092767;28;20182;-71
2022/08/19 08:39:11;;;;;;;7.93;5.72;;;24.20;1.00;;;;;;5092508;28;20271;-71
2022/08/19 08:41:52;;;;;;;10.73;6.10;;;23.70;1.00;;;;;;5092506;28;20506;-71
2022/08/19 08:44:31;;;;;;;9.23;6.30;;;23.60;1.00;;;;;;5093177;28;20160;-71
2022/08/19 08:47:01;;;;;;;9.82;6.15;;;23.60;1.00;;;;;;5092116;28;20171;-71
2022/08/19 08:49:54;;;;;;;7.72;6.53;;;23.60;1.00;;;;;;5092269;28;20214;-71
2022/08/19 08:52:23;;;;;;;9.32;5.97;;;23.60;1.00;;;;;;5090771;28;20267;-72
2022/08/19 08:54:52;;;;;;;8.93;6.05;;;23.60;1.00;;;;;;5092465;28;20172;-71
2022/08/19 08:57:44;;;;;;;9.43;6.13;;;23.60;1.00;;;;;;5092572;28;20193;-71
2022/08/19 09:00:16;;;;;;;12.00;6.45;;;23.60;1.00;;;;;;5092079;28;20210;-71
2022/08/19 09:02:43;;;;;;;7.30;6.18;;;23.70;1.00;;;;;;5092685;28;20179;-71
2022/08/19 09:05:12;;;;;;;9.93;6.18;;;23.40;1.00;;;;;;5091941;28;20627;-71
2022/08/19 09:08:02;;;;;;;8.88;6.60;;;23.50;1.00;;;;;;5091691;28;20223;-71
2022/08/19 09:10:36;;;;;;;7.20;6.25;;;23.40;1.00;;;;;;5092212;28;20318;-71
2022/08/19 09:13:13;;;;;;;6.68;6.03;;;23.50;1.00;;;;;;5091954;28;20163;-71
2022/08/19 09:15:47;;;;;;;6.72;5.38;;;23.50;1.00;;;;;;5092218;28;20623;-71
2022/08/19 09:18:13;;;;;;;11.52;5.70;;;23.40;1.00;;;;;;5092326;28;20182;-70
2022/08/19 09:20:39;;;;;;;6.32;5.72;;;23.30;1.00;;;;;;5091892;28;20175;-70
2022/08/19 09:23:05;;;;;;;8.32;5.90;;;23.50;1.00;;;;;;5093442;28;20195;-71
2022/08/19 09:25:32;;;;;;;6.13;5.53;;;23.60;1.00;;;;;;5094830;28;20627;-71
2022/08/19 09:28:02;;;;;;;6.53;5.65;;;23.90;1.00;;;;;;5096010;28;20164;-71
2022/08/19 09:30:30;;;;;;;10.77;5.80;;;24.00;1.00;;;;;;5095912;28;20253;-71
2022/08/19 09:32:56;;;;;;;8.82;5.45;;;23.80;1.00;;;;;;5096051;28;20183;-71
2022/08/19 09:35:25;;;;;;;7.00;5.93;;;23.70;1.00;;;;;;5094686;28;20525;-71
2022/08/19 09:37:51;;;;;;;7.53;5.45;;;23.60;1.00;;;;;;5095987;28;20193;-71
2022/08/19 09:40:17;;;;;;;6.25;5.20;;;23.70;1.00;;;;;;5094360;28;20171;-70
2022/08/19 09:42:46;;;;;;;6.15;5.45;;;23.40;1.00;;;;;;5095803;28;20178;-70
2022/08/19 09:45:14;;;;;;;5.95;5.40;;;23.30;1.00;;;;;;5095674;28;20259;-71
2022/08/19 09:47:39;;;;;;;8.88;5.60;;;23.30;1.00;;;;;;5095405;28;20168;-70
2022/08/19 09:50:08;;;;;;;9.35;5.55;;;23.70;1.00;;;;;;5094973;28;20218;-71
2022/08/19 09:52:36;;;;;;;5.63;4.90;;;23.80;1.00;;;;;;5094902;28;20287;-70
2022/08/19 09:55:03;;;;;;;8.55;5.88;;;23.90;1.00;;;;;;5095187;28;20646;-70
2022/08/19 09:57:29;;;;;;;6.80;5.13;;;23.70;1.00;;;;;;5095666;28;20168;-71
2022/08/19 09:59:54;;;;;;;7.53;5.47;;;23.60;1.00;;;;;;5094952;28;20654;-71
2022/08/19 10:02:20;;;;;;;5.90;5.32;;;23.60;1.00;;;;;;5095726;28;20200;-71
2022/08/19 10:07:30;;;;;;;7.22;6.53;;;23.60;1.00;;;;;;5094971;28;20246;-71
2022/08/19 10:09:56;;;;;;;6.32;5.15;;;24.00;1.00;;;;;;5095024;28;20651;-71
2022/08/19 10:12:22;;;;;;;6.75;5.40;;;24.10;1.00;;;;;;5094784;28;20168;-71
2022/08/19 10:14:48;;;;;;;5.28;4.78;;;24.20;1.00;;;;;;5095305;28;20182;-71
2022/08/19 10:17:14;;;;;;;5.40;4.72;;;23.90;1.00;;;;;;5095162;28;20186;-71
2022/08/19 10:19:40;;;;;;;7.20;4.95;;;23.70;1.00;;;;;;5093208;28;20172;-71
2022/08/19 10:22:06;;;;;;;8.10;4.80;;;23.70;1.00;;;;;;5094910;28;20275;-71
2022/08/19 10:24:35;;;;;;;6.07;4.40;;;24.00;1.00;;;;;;5094403;28;20256;-71
2022/08/19 10:27:05;;;;;;;5.68;4.57;;;24.20;1.00;;;;;;5095334;28;20176;-71
2022/08/19 10:29:31;;;;;;;6.68;5.30;;;24.20;1.00;;;;;;5095180;28;20702;-71
2022/08/19 10:31:58;;;;;;;5.50;4.50;;;24.20;1.00;;;;;;5094891;28;20172;-71
2022/08/19 10:34:24;;;;;;;7.25;5.40;;;24.30;1.00;;;;;;5093708;28;20537;-71
2022/08/19 10:36:51;;;;;;;5.75;4.90;;;24.50;1.00;;;;;;5094313;28;20183;-71
2022/08/19 10:39:16;;;;;;;5.45;5.05;;;24.80;1.00;;;;;;5093669;28;20656;-70
2022/08/19 10:41:43;;;;;;;6.97;5.90;;;24.70;1.00;;;;;;5094571;28;20186;-70
2022/08/19 10:44:11;;;;;;;6.05;5.32;;;24.60;1.00;;;;;;5094241;28;20169;-72
2022/08/19 10:46:41;;;;;;;9.98;6.60;;;24.30;1.00;;;;;;5094328;28;20221;-71
2022/08/19 10:49:08;;;;;;;6.85;6.18;;;24.00;1.00;;;;;;5094049;28;20302;-71
2022/08/19 10:54:18;;;;;;;7.20;6.45;;;24.00;1.00;;;;;;5093964;28;20174;-71
2022/08/19 10:56:53;;;;;;;9.45;6.55;;;24.20;1.00;;;;;;5094188;28;20167;-71
2022/08/19 10:59:20;;;;;;;6.30;5.50;;;24.20;1.00;;;;;;5094124;28;20186;-71
2022/08/19 11:01:47;;;;;;;11.65;6.43;;;24.20;1.00;;;;;;5093987;28;20242;-71
2022/08/19 11:04:13;;;;;;;8.68;6.15;;;24.00;1.00;;;;;;5092670;28;20172;-71
2022/08/19 11:06:43;;;;;;;8.00;6.30;;;24.00;1.00;;;;;;5093852;28;20176;-71
2022/08/19 11:09:10;;;;;;;7.55;6.57;;;24.00;1.00;;;;;;5092093;28;20565;-70
2022/08/19 11:11:40;;;;;;;8.40;6.30;;;23.80;1.00;;;;;;5092563;28;20175;-71
2022/08/19 11:14:07;;;;;;;6.63;5.93;;;23.60;10.70;;;;;;5092772;28;20174;-70
2022/08/19 11:16:32;;;;;;;6.72;6.10;;;23.90;7.60;;;;;;5092856;28;20180;-71
2022/08/19 11:18:59;;;;;;;6.30;5.72;;;23.80;1.00;;;;;;5094186;28;20221;-70
2022/08/19 11:21:34;;;;;;;6.47;5.25;;;24.10;1.00;;;;;;5094314;28;20168;-71
2022/08/19 11:24:03;;;;;;;7.63;5.50;;;24.40;1.00;;;;;;5093097;28;20187;-71
2022/08/19 11:26:30;;;;;;;8.70;5.32;;;24.80;1.00;;;;;;5093938;28;20170;-71
2022/08/19 11:28:57;;;;;;;6.28;5.75;;;24.90;1.00;;;;;;5093988;28;20677;-71
2022/08/19 11:31:28;;;;;;;6.00;5.50;;;24.80;1.00;;;;;;5092249;28;20176;-70
2022/08/19 11:34:01;;;;;;;5.63;5.18;;;24.80;1.00;;;;;;5093642;28;20199;-72
2022/08/19 11:36:27;;;;;;;8.80;7.90;;;25.00;1.00;;;;;;5093513;28;20203;-71
2022/08/19 11:38:54;;;;;;;9.80;8.85;;;24.80;1.00;;;;;;5093378;28;20164;-70
2022/08/19 11:41:23;;;;;;;11.32;9.32;;;24.40;1.00;;;;;;5093708;28;20163;-71
2022/08/19 11:43:49;;;;;;;9.98;9.02;;;24.30;1.00;;;;;;5093686;28;20353;-70
2022/08/19 11:46:16;;;;;;;10.38;9.07;;;24.30;1.00;;;;;;5091558;28;20198;-72
2022/08/19 11:48:43;;;;;;;9.25;8.55;;;24.20;1.00;;;;;;5092545;28;20168;-71
2022/08/19 11:51:17;;;;;;;9.57;8.70;;;24.40;1.00;;;;;;5093368;28;20255;-71
2022/08/19 11:53:42;;;;;;;9.93;8.52;;;24.60;1.00;;;;;;5092768;28;20281;-71
2022/08/19 11:56:09;;;;;;;8.88;8.18;;;24.90;1.00;;;;;;5092964;28;20503;-71
2022/08/19 11:58:35;;;;;;;8.68;7.90;;;24.90;1.00;;;;;;5092860;28;20168;-71
2022/08/19 12:01:04;;;;;;;13.20;8.13;;;25.30;1.00;;;;;;5092838;28;20159;-71
2022/08/19 12:03:30;;;;;;;8.85;7.90;;;26.10;1.00;;;;;;5092820;28;20168;-71
2022/08/19 12:05:56;;;;;;;9.40;8.48;;;26.00;1.00;;;;;;5092354;28;20171;-71
2022/08/19 12:08:22;;;;;;;7.70;7.10;;;26.10;1.00;;;;;;5092915;28;20227;-72
2022/08/19 12:10:48;;;;;;;8.23;7.43;;;26.10;1.00;;;;;;5093505;28;20195;-72
2022/08/19 12:13:18;;;;;;;7.13;6.43;;;26.30;1.00;;;;;;5092952;28;20230;-72
2022/08/19 12:15:45;;;;;;;6.85;6.15;;;26.80;1.00;;;;;;5092692;28;20176;-72
2022/08/19 12:18:13;;;;;;;7.70;6.22;;;27.20;99.90;;;;;;5092268;28;20240;-73
2022/08/19 12:20:40;;;;;;;6.00;5.50;;;27.10;99.90;;;;;;5093057;28;20163;-72
2022/08/19 12:23:09;;;;;;;6.10;5.70;;;27.40;99.90;;;;;;5092257;28;20188;-73
2022/08/19 12:25:35;;;;;;;5.75;5.25;;;27.30;1.00;;;;;;5092617;28;20180;-72
2022/08/19 12:28:02;;;;;;;6.28;5.78;;;27.50;1.00;;;;;;5091584;28;20551;-73
2022/08/19 12:30:27;;;;;;;5.70;5.20;;;27.20;99.90;;;;;;5092299;28;20208;-72
2022/08/19 12:32:53;;;;;;;5.70;5.10;;;26.60;1.00;;;;;;5092228;28;20183;-71
2022/08/19 12:35:19;;;;;;;5.55;5.05;;;26.50;1.00;;;;;;5092993;28;20176;-73
2022/08/19 12:37:47;;;;;;;7.10;4.60;;;26.70;1.00;;;;;;5092134;28;20205;-72
2022/08/19 12:40:14;;;;;;;4.60;3.65;;;27.00;99.90;;;;;;5092232;28;20173;-72
2022/08/19 12:42:43;;;;;;;3.83;3.50;;;27.10;99.90;;;;;;5092500;28;20222;-73
2022/08/19 12:45:11;;;;;;;4.13;3.83;;;26.50;1.00;;;;;;5092215;28;20179;-72
2022/08/19 12:47:36;;;;;;;4.25;3.83;;;26.50;1.00;;;;;;5092365;28;20172;-72
2022/08/19 12:50:03;;;;;;;3.80;3.50;;;26.20;1.00;;;;;;5092089;28;20213;-72
2022/08/19 12:52:28;;;;;;;4.68;3.47;;;26.50;1.00;;;;;;5092528;28;20168;-72
2022/08/19 12:54:56;;;;;;;3.70;3.42;;;26.50;1.00;;;;;;5092113;28;20178;-73
2022/08/19 12:57:24;;;;;;;3.75;3.45;;;26.90;1.00;;;;;;5092498;28;20172;-72
2022/08/19 12:59:55;;;;;;;3.72;3.42;;;27.10;99.90;;;;;;5095786;28;20171;-72
2022/08/19 13:02:22;;;;;;;4.70;3.35;;;27.10;1.00;;;;;;5095885;28;20166;-72